Columbus Air Force Base
KCBM : now visible

Airfield :











YOU CAN JOIN US ON...

 
LOGIN :

Register | Disclaimer

   EN    FR    IT 

 









Legend :    VFR   Marginal VFR   IFR   Intensive IFR   Very Intensive IFR
Visi :
Ceiling :
>= 8 km
>= 3000ft
5 to 8 km
1000 to 3000 ft
1500m to 5 km
500 to 1000 ft
800 to 1500m
200 to 500 ft
< 800m
< 200 ft
Symbols :   Thunderstorms  Fog  Heavy snow  Heavy precipitations  Wind > 20 kt






- Airport Elevation : 219 ft


KCBM - Columbus Air Force Base

CURRENT METAR :
  • 200007Z AUTO 32007KT 10SM OVC020 22/19 A3000 RMK AO2 SLP160

EXPIRED METARs :
  • 192355Z 02009KT 10SM OVC018 22/19 A3000 RMK AO2A RAB2250E09DZB09E11 SLP160 P0000 60000 T02240190 10258 20224 53002
  • 192312Z 29006KT 10SM FEW020 BKN029 BKN039 23/21 A2999 RMK AO2A RAE09DZB09E11 SLP156
  • 192303Z 29007KT 10SM -RA SCT020 BKN028 BKN033 23/21 A2999 RMK AO2A CIG 028V033 BKN028 V SCT SLP157
  • 192255Z 28007KT 10SM -RA BKN027 BKN033 24/21 A2999 RMK AO2A RAB49 SLP156 P0000 T02370208
  • 192216Z 30004KT 10SM BKN027 25/20 A2999 RMK AO2A SLP156
  • 192155Z 30004KT 10SM BKN028 25/21 A2999 RMK AO2A RAB2056E06 SLP156 P0000 T02460207
  • 192140Z 28004KT 10SM BKN028 BKN044 24/20 A2999 RMK AO2A RAB2056E06 SLP156
  • 192055Z 32008KT 10SM BKN026 BKN034 24/20 A2999 RMK AO2A SLP156 T02390198 57008
  • 192043Z 31006KT 10SM FEW020 BKN028 BKN035 24/20 A2999 RMK AO2A SLP156
  • 192001Z 31007KT 10SM BKN020 BKN030 25/20 A2999 RMK AO2A CIG 020V030 BKN020 V SCT SLP156
  • 191907Z 30006KT 10SM BKN021 BKN040 25/20 A3001 RMK AO2A CIG 021V042 SLP163

TAF TAF KCBM
Valid from the 19 at 17:00 until the 20 at 23:00 UTC


191700Z 1917/2023 29006KT 9999 BKN020 OVC030 QNH2999INS
BECMG 1918/1919 34006KT 9999 VCSH BKN020 OVC030 QNH2997INS
TEMPO 1919/1922 8000 -SHRA VCTS OVC020CB
BECMG 1921/1922 35006KT 9999 NSW BKN020 OVC030 QNH2999INS
BECMG 2005/2006 36006KT 9999 BKN010 OVC020 QNH3004INS
BECMG 2012/2013 02010G15KT 9999 BKN020 OVC030 QNH3007INS TX27/1919Z TN15/2010Z
KZME FIR / North America



MET'MAP, your aeronautical weather chart ! - Copyright ORBIFLY December 2007 - Disclaimer

ORBIFLY MET'MAP TEAM :

Programming & Development : Alexandra Zaïnal
Original concept : Baudouin d'Aumeries
Technical & hardware support : Manuel Goepfert
Assistance : Marc-Olivier Méhu




SOURCES & CREDITS :

   NOAA       Earth
Advisory